createdAt,value
2023-03-21T00:01:54.773Z,14.40
2023-03-21T00:04:23.746Z,14.40
2023-03-21T00:09:18.542Z,14.40
2023-03-21T00:16:45.875Z,14.40
2023-03-21T00:24:30.068Z,14.30
2023-03-21T00:27:03.462Z,14.30
2023-03-21T00:37:21.486Z,14.30
2023-03-21T00:39:49.431Z,14.30
2023-03-21T00:42:16.917Z,14.30
2023-03-21T00:44:44.838Z,14.30
2023-03-21T00:47:13.274Z,14.30
2023-03-21T00:52:18.503Z,14.30
2023-03-21T00:59:48.990Z,14.30
2023-03-21T01:04:50.491Z,14.40
2023-03-21T01:12:12.389Z,14.40
2023-03-21T01:14:39.337Z,14.40
2023-03-21T01:17:07.398Z,14.40
2023-03-21T01:19:50.219Z,14.40
2023-03-21T01:24:53.931Z,14.40
2023-03-21T01:29:51.181Z,14.40
2023-03-21T01:39:46.353Z,14.30
2023-03-21T01:42:14.097Z,14.30
2023-03-21T01:45:04.462Z,14.30
2023-03-21T01:50:22.275Z,14.20
2023-03-21T01:53:24.318Z,14.20
2023-03-21T01:58:42.479Z,14.10
2023-03-21T02:03:57.281Z,14.00
2023-03-21T02:06:36.687Z,14.30
2023-03-21T02:09:22.704Z,13.90
2023-03-21T02:14:26.963Z,13.80
2023-03-21T02:17:09.856Z,13.80
2023-03-21T02:19:53.004Z,13.80
2023-03-21T02:22:52.897Z,13.70
2023-03-21T02:25:30.352Z,13.70
2023-03-21T02:28:21.124Z,13.60
2023-03-21T02:31:19.816Z,13.50
2023-03-21T02:34:27.545Z,13.50
2023-03-21T02:39:36.439Z,13.40
2023-03-21T02:42:14.167Z,13.30
2023-03-21T02:45:07.534Z,13.30
2023-03-21T02:47:49.815Z,13.30
2023-03-21T02:50:24.834Z,13.20
2023-03-21T02:52:53.968Z,13.20
2023-03-21T02:55:25.816Z,13.20
2023-03-21T02:58:04.075Z,13.10
2023-03-21T03:00:42.951Z,13.10
2023-03-21T03:03:16.033Z,13.10
2023-03-21T03:05:55.867Z,13.10
2023-03-21T03:08:59.558Z,13.00
2023-03-21T03:11:37.938Z,13.00
2023-03-21T03:14:56.516Z,13.00
2023-03-21T03:17:47.982Z,13.00
2023-03-21T03:20:32.421Z,12.90
2023-03-21T03:23:02.129Z,12.90
2023-03-21T03:25:42.886Z,12.90
2023-03-21T03:28:17.321Z,12.90
2023-03-21T03:31:00.852Z,12.90
2023-03-21T03:33:40.341Z,12.80
2023-03-21T03:36:21.583Z,12.90
2023-03-21T03:38:52.537Z,12.80
2023-03-21T03:41:26.847Z,12.80
2023-03-21T03:44:01.244Z,12.80
2023-03-21T03:46:36.982Z,12.80
2023-03-21T03:49:19.797Z,12.80
2023-03-21T03:52:05.744Z,12.80
2023-03-21T03:54:43.006Z,12.70
2023-03-21T03:57:11.939Z,12.70
2023-03-21T03:59:41.515Z,12.70
2023-03-21T04:07:21.589Z,12.70
2023-03-21T04:12:20.923Z,12.70
2023-03-21T04:15:10.507Z,12.70
2023-03-21T04:17:40.257Z,12.70
2023-03-21T04:20:12.109Z,12.70
2023-03-21T04:22:43.585Z,12.70
2023-03-21T04:27:38.177Z,12.70
2023-03-21T04:30:34.217Z,12.70
2023-03-21T04:33:09.976Z,12.70
2023-03-21T04:35:38.943Z,12.60
2023-03-21T04:40:35.605Z,12.60
2023-03-21T04:45:29.919Z,12.60
2023-03-21T04:47:58.282Z,12.60
2023-03-21T04:52:52.633Z,12.60
2023-03-21T04:55:21.631Z,12.60
2023-03-21T04:57:48.905Z,12.50
2023-03-21T05:02:43.405Z,12.50
2023-03-21T05:05:11.899Z,12.50
2023-03-21T05:07:41.192Z,12.50
2023-03-21T05:10:11.824Z,12.50
2023-03-21T05:12:41.394Z,12.40
2023-03-21T05:15:09.079Z,12.40
2023-03-21T05:20:04.896Z,12.40
2023-03-21T05:25:12.311Z,12.40
2023-03-21T05:30:31.632Z,12.40
2023-03-21T05:33:00.601Z,12.40
2023-03-21T05:40:28.842Z,12.40
2023-03-21T05:50:25.780Z,12.30
2023-03-21T05:53:07.877Z,12.30
2023-03-21T05:58:04.280Z,12.30
2023-03-21T06:05:56.835Z,12.30
2023-03-21T06:08:28.020Z,12.30
2023-03-21T06:18:25.559Z,12.30
2023-03-21T06:21:10.983Z,12.40
2023-03-21T06:31:03.449Z,12.40
2023-03-21T06:33:32.027Z,12.40
2023-03-21T06:43:25.292Z,12.60
2023-03-21T06:45:52.332Z,12.60
2023-03-21T06:50:51.001Z,12.70
2023-03-21T06:53:24.431Z,12.80
2023-03-21T07:01:41.033Z,12.90
2023-03-21T07:04:08.577Z,13.00
2023-03-21T07:09:05.585Z,13.10
2023-03-21T07:11:36.206Z,13.20
2023-03-21T07:14:04.919Z,13.30
2023-03-21T07:16:33.064Z,13.30
2023-03-21T07:19:00.308Z,13.40
2023-03-21T07:21:27.793Z,13.50
2023-03-21T07:23:55.784Z,13.50
2023-03-21T07:26:23.232Z,13.60
2023-03-21T07:28:53.861Z,13.70
2023-03-21T07:31:21.683Z,13.80
2023-03-21T07:36:17.257Z,13.90
2023-03-21T07:38:45.996Z,14.00
2023-03-21T07:43:41.724Z,14.10
2023-03-21T07:46:12.211Z,14.10
2023-03-21T07:51:08.009Z,14.20
2023-03-21T07:53:36.170Z,14.30
2023-03-21T07:58:34.871Z,14.40
2023-03-21T08:03:31.181Z,14.50
2023-03-21T08:06:00.388Z,14.50
2023-03-21T08:08:27.996Z,14.60
2023-03-21T08:10:55.627Z,14.50
2023-03-21T08:13:23.139Z,10.70
2023-03-21T08:15:50.574Z,14.70
2023-03-21T08:20:45.235Z,14.80
2023-03-21T08:23:13.841Z,14.80
2023-03-21T08:25:40.748Z,14.80
2023-03-21T08:28:07.672Z,14.90
2023-03-21T08:30:34.643Z,14.90
2023-03-21T08:33:02.108Z,14.90
2023-03-21T08:35:29.878Z,15.00
2023-03-21T08:37:57.300Z,15.00
2023-03-21T08:40:24.407Z,15.10
2023-03-21T08:42:51.208Z,15.10
2023-03-21T08:45:18.644Z,11.00
2023-03-21T08:47:46.843Z,15.20
2023-03-21T08:50:17.556Z,15.20
2023-03-21T08:52:44.636Z,15.30
2023-03-21T08:55:13.197Z,15.30
2023-03-21T08:57:40.430Z,15.40
2023-03-21T09:00:15.355Z,15.40
2023-03-21T09:02:43.261Z,15.50
2023-03-21T09:05:14.242Z,15.50
2023-03-21T09:07:41.699Z,15.50
2023-03-21T09:10:23.160Z,15.60
2023-03-21T09:12:52.739Z,15.70
2023-03-21T09:15:21.730Z,15.80
2023-03-21T09:17:52.688Z,15.70
2023-03-21T09:20:26.412Z,11.00
2023-03-21T09:22:53.787Z,15.80
2023-03-21T09:25:21.605Z,15.80
2023-03-21T09:27:48.710Z,16.10
2023-03-21T09:30:18.551Z,15.90
2023-03-21T09:32:48.536Z,15.90
2023-03-21T09:35:19.698Z,16.00
2023-03-21T09:37:48.232Z,16.00
2023-03-21T09:40:32.874Z,16.00
2023-03-21T09:43:23.290Z,16.00
2023-03-21T09:46:03.928Z,16.10
2023-03-21T09:48:39.633Z,16.10
2023-03-21T09:51:16.381Z,16.10
2023-03-21T09:53:47.902Z,16.20
2023-03-21T09:56:15.954Z,16.20
2023-03-21T09:58:53.228Z,16.20
2023-03-21T10:01:34.356Z,16.20
2023-03-21T10:04:09.176Z,16.20
2023-03-21T10:06:41.200Z,16.30
2023-03-21T10:09:14.164Z,16.30
2023-03-21T10:11:47.664Z,16.30
2023-03-21T10:14:24.846Z,16.30
2023-03-21T10:16:59.648Z,16.30
2023-03-21T10:19:28.191Z,16.30
2023-03-21T10:22:03.899Z,16.30
2023-03-21T10:24:32.698Z,16.50
2023-03-21T10:27:01.306Z,16.40
2023-03-21T10:29:42.416Z,16.50
2023-03-21T10:32:16.276Z,16.50
2023-03-21T10:34:49.616Z,16.50
2023-03-21T10:39:48.470Z,16.50
2023-03-21T10:42:36.793Z,16.50
2023-03-21T10:45:15.800Z,16.60
2023-03-21T10:50:17.993Z,16.50
2023-03-21T10:52:49.571Z,16.50
2023-03-21T10:55:33.057Z,16.50
2023-03-21T10:58:08.694Z,16.50
2023-03-21T11:00:40.052Z,16.50
2023-03-21T11:03:21.350Z,16.50
2023-03-21T11:08:18.698Z,16.50
2023-03-21T11:10:59.730Z,16.50
2023-03-21T11:13:33.516Z,16.50
2023-03-21T11:16:11.040Z,16.50
2023-03-21T11:18:50.896Z,16.50
2023-03-21T11:23:52.832Z,16.40
2023-03-21T11:26:36.643Z,16.40
2023-03-21T11:29:23.549Z,16.40
2023-03-21T11:34:45.989Z,16.30
2023-03-21T11:37:35.019Z,16.30
2023-03-21T11:40:24.919Z,16.20
2023-03-21T11:43:24.595Z,16.10
2023-03-21T11:46:13.282Z,16.10
2023-03-21T11:48:50.355Z,16.10
2023-03-21T11:51:31.840Z,16.10
2023-03-21T11:56:31.170Z,16.00
2023-03-21T12:01:39.152Z,16.00
2023-03-21T12:04:47.679Z,12.10
2023-03-21T12:09:58.457Z,16.00
2023-03-21T12:12:59.738Z,16.00
2023-03-21T12:15:41.010Z,16.10
2023-03-21T12:18:49.147Z,16.10
2023-03-21T12:21:40.616Z,16.20
2023-03-21T12:24:20.794Z,16.20
2023-03-21T12:27:37.047Z,16.20
2023-03-21T12:30:45.335Z,16.30
2023-03-21T12:33:24.495Z,16.40
2023-03-21T12:36:11.111Z,16.40
2023-03-21T12:38:55.318Z,16.50
2023-03-21T12:41:38.732Z,16.50
2023-03-21T12:44:24.124Z,16.60
2023-03-21T12:47:02.395Z,16.60
2023-03-21T12:52:06.598Z,16.70
2023-03-21T12:55:07.873Z,16.80
2023-03-21T12:58:12.029Z,16.90
2023-03-21T13:00:46.825Z,16.90
2023-03-21T13:03:39.857Z,16.90
2023-03-21T13:06:10.692Z,17.00
2023-03-21T13:08:44.660Z,17.00
2023-03-21T13:11:15.841Z,17.00
2023-03-21T13:14:04.406Z,13.10
2023-03-21T13:16:37.370Z,17.00
2023-03-21T13:19:20.043Z,17.10
2023-03-21T13:21:51.373Z,17.10
2023-03-21T13:24:27.957Z,17.10
2023-03-21T13:27:07.606Z,20.80
2023-03-21T13:29:51.788Z,17.10
2023-03-21T13:32:34.648Z,17.20
2023-03-21T13:35:28.954Z,17.20
2023-03-21T13:38:02.533Z,17.20
2023-03-21T13:40:38.468Z,17.20
2023-03-21T13:43:07.213Z,17.10
2023-03-21T13:45:52.119Z,17.20
2023-03-21T13:48:46.538Z,17.20
2023-03-21T13:51:37.489Z,17.20
2023-03-21T13:54:30.300Z,17.10
2023-03-21T13:57:01.314Z,17.10
2023-03-21T13:59:41.033Z,17.10
2023-03-21T14:02:22.620Z,17.10
2023-03-21T14:05:05.197Z,17.10
2023-03-21T14:07:41.790Z,17.10
2023-03-21T14:10:28.071Z,17.10
2023-03-21T14:12:55.289Z,17.00
2023-03-21T14:15:23.743Z,17.10
2023-03-21T14:17:56.340Z,17.10
2023-03-21T14:20:29.552Z,16.90
2023-03-21T14:22:56.812Z,17.00
2023-03-21T14:25:37.040Z,17.00
2023-03-21T14:28:14.880Z,17.20
2023-03-21T14:30:44.122Z,17.00
2023-03-21T14:33:27.424Z,17.00
2023-03-21T14:35:58.649Z,17.00
2023-03-21T14:38:35.736Z,16.90
2023-03-21T14:41:03.482Z,16.90
2023-03-21T14:43:33.998Z,16.90
2023-03-21T14:48:35.563Z,16.90
2023-03-21T14:51:08.170Z,16.80
2023-03-21T14:53:41.313Z,16.80
2023-03-21T14:56:23.496Z,16.80
2023-03-21T15:01:30.430Z,16.80
2023-03-21T15:04:00.462Z,16.80
2023-03-21T15:06:27.540Z,16.80
2023-03-21T15:08:59.502Z,16.80
2023-03-21T15:11:35.482Z,16.80
2023-03-21T15:14:06.848Z,16.80
2023-03-21T15:16:34.936Z,16.80
2023-03-21T15:19:05.155Z,16.80
2023-03-21T15:21:38.200Z,16.80
2023-03-21T15:24:13.954Z,16.80
2023-03-21T15:26:45.599Z,16.80
2023-03-21T15:29:13.831Z,16.80
2023-03-21T15:31:41.559Z,16.80
2023-03-21T15:34:19.537Z,16.80
2023-03-21T15:36:49.157Z,16.80
2023-03-21T15:39:18.085Z,16.70
2023-03-21T15:42:04.162Z,16.70
2023-03-21T15:49:29.716Z,16.70
2023-03-21T15:52:11.594Z,16.70
2023-03-21T15:54:50.239Z,16.70
2023-03-21T15:57:22.877Z,16.70
2023-03-21T16:02:19.858Z,16.70
2023-03-21T16:05:27.587Z,16.70
2023-03-21T16:07:59.328Z,16.70
2023-03-21T16:10:32.205Z,16.70
2023-03-21T16:15:27.160Z,16.60
2023-03-21T16:17:59.453Z,16.60
2023-03-21T16:20:32.627Z,16.60
2023-03-21T16:25:27.057Z,16.60
2023-03-21T16:27:53.930Z,16.60
2023-03-21T16:30:22.222Z,16.60
2023-03-21T16:35:22.402Z,16.60
2023-03-21T16:37:50.496Z,16.50
2023-03-21T16:40:26.342Z,16.50
2023-03-21T16:45:20.957Z,16.50
2023-03-21T16:50:37.181Z,16.50
2023-03-21T16:58:01.149Z,16.40
2023-03-21T17:00:30.810Z,16.40
2023-03-21T17:03:01.817Z,16.40
2023-03-21T17:05:32.817Z,16.40
2023-03-21T17:10:32.166Z,16.30
2023-03-21T17:12:59.450Z,16.30
2023-03-21T17:17:55.585Z,16.30
2023-03-21T17:20:31.621Z,16.30
2023-03-21T17:22:58.341Z,16.30
2023-03-21T17:25:25.408Z,16.30
2023-03-21T17:27:54.061Z,16.30
2023-03-21T17:30:29.891Z,16.20
2023-03-21T17:35:25.498Z,16.20
2023-03-21T17:37:52.982Z,16.20
2023-03-21T17:40:29.832Z,16.20
2023-03-21T17:42:58.488Z,16.20
2023-03-21T17:45:25.866Z,16.20
2023-03-21T17:47:54.787Z,16.10
2023-03-21T17:50:27.337Z,16.10
2023-03-21T17:55:24.779Z,12.90
2023-03-21T17:57:51.827Z,16.10
2023-03-21T18:00:22.896Z,16.00
2023-03-21T18:02:50.613Z,16.00
2023-03-21T18:05:18.748Z,16.00
2023-03-21T18:10:33.687Z,15.90
2023-03-21T18:17:57.938Z,15.80
2023-03-21T18:28:12.012Z,15.70
2023-03-21T18:31:09.659Z,15.70
2023-03-21T18:33:27.506Z,15.70
2023-03-21T18:35:59.036Z,15.60
2023-03-21T18:40:55.641Z,15.50
2023-03-21T18:51:06.129Z,15.40
2023-03-21T18:53:36.357Z,15.40
2023-03-21T19:01:05.407Z,15.30
2023-03-21T19:06:05.648Z,15.20
2023-03-21T19:08:36.956Z,15.20
2023-03-21T19:11:06.573Z,15.20
2023-03-21T19:13:34.115Z,15.10
2023-03-21T19:21:19.479Z,15.00
2023-03-21T19:36:24.038Z,14.80
2023-03-21T19:38:51.756Z,14.80
2023-03-21T19:41:20.357Z,14.80
2023-03-21T19:46:25.144Z,14.70
2023-03-21T19:48:56.264Z,14.70
2023-03-21T19:51:29.763Z,14.70
2023-03-21T19:54:03.368Z,14.60
2023-03-21T19:56:31.639Z,14.60
2023-03-21T20:03:54.923Z,14.60
2023-03-21T20:06:24.985Z,14.50
2023-03-21T20:11:40.756Z,14.50
2023-03-21T20:19:06.150Z,14.50
2023-03-21T20:26:45.797Z,14.40
2023-03-21T20:32:00.726Z,14.40
2023-03-21T20:34:28.793Z,14.40
2023-03-21T20:36:58.352Z,14.30
2023-03-21T20:49:41.469Z,14.30
2023-03-21T20:54:57.529Z,14.30
2023-03-21T20:57:28.327Z,14.30
2023-03-21T21:02:23.883Z,14.30
2023-03-21T21:05:21.948Z,14.30
2023-03-21T21:07:41.794Z,14.30
2023-03-21T21:10:16.034Z,14.30
2023-03-21T21:15:21.677Z,14.30
2023-03-21T21:20:35.578Z,14.10
2023-03-21T21:25:32.853Z,14.20
2023-03-21T21:30:29.564Z,14.20
2023-03-21T21:32:59.525Z,14.20
2023-03-21T21:35:26.657Z,14.20
2023-03-21T21:37:53.674Z,14.20
2023-03-21T21:40:23.230Z,14.30
2023-03-21T21:47:46.507Z,14.30
2023-03-21T21:52:43.821Z,14.40
2023-03-21T21:55:10.892Z,14.40
2023-03-21T22:00:12.936Z,14.50
2023-03-21T22:02:40.863Z,14.50
2023-03-21T22:07:37.460Z,14.60
2023-03-21T22:10:04.845Z,14.70
2023-03-21T22:20:05.257Z,14.80
2023-03-21T22:22:34.703Z,14.90
2023-03-21T22:29:56.546Z,15.00
2023-03-21T22:39:45.418Z,15.10
2023-03-21T22:47:09.494Z,15.10
2023-03-21T22:49:38.001Z,15.10
2023-03-21T22:52:06.383Z,15.10
2023-03-21T22:54:33.389Z,15.20
2023-03-21T22:57:00.522Z,15.20
2023-03-21T23:04:22.983Z,15.20
2023-03-21T23:14:17.498Z,15.20
2023-03-21T23:19:12.286Z,15.20
2023-03-21T23:21:40.063Z,15.10
2023-03-21T23:24:07.812Z,15.10
2023-03-21T23:26:35.689Z,15.20
2023-03-21T23:29:03.871Z,15.10
2023-03-21T23:31:32.924Z,15.10
2023-03-21T23:34:01.050Z,15.10
2023-03-21T23:36:28.961Z,15.10
2023-03-21T23:38:56.531Z,15.10
2023-03-21T23:41:24.663Z,15.10
2023-03-21T23:43:51.706Z,15.10
2023-03-21T23:46:19.380Z,15.10
2023-03-21T23:48:46.828Z,15.10
2023-03-21T23:51:16.254Z,15.10
2023-03-21T23:53:44.914Z,15.20
2023-03-21T23:56:18.088Z,15.20
2023-03-21T23:58:45.622Z,15.20
